createdAt,value
2019-06-15T00:05:32.731Z,41.45
2019-06-15T00:08:05.085Z,41.66
2019-06-15T00:10:37.285Z,41.91
2019-06-15T00:13:09.022Z,41.93
2019-06-15T00:15:39.988Z,41.82
2019-06-15T00:18:12.263Z,41.18
2019-06-15T00:20:42.992Z,41.66
2019-06-15T00:23:13.953Z,41.79
2019-06-15T00:25:44.866Z,42.50
2019-06-15T00:28:18.777Z,42.31
2019-06-15T00:30:49.622Z,42.62
2019-06-15T00:33:20.616Z,42.45
2019-06-15T00:36:10.249Z,42.29
2019-06-15T00:38:41.104Z,42.32
2019-06-15T00:41:11.965Z,42.46
2019-06-15T00:43:42.768Z,42.91
2019-06-15T00:46:13.723Z,43.39
2019-06-15T00:48:44.573Z,43.54
2019-06-15T00:51:14.630Z,43.53
2019-06-15T00:54:04.631Z,43.91
2019-06-15T00:56:35.487Z,43.91
2019-06-15T00:59:25.985Z,43.58
2019-06-15T01:01:57.819Z,43.40
2019-06-15T01:04:28.710Z,43.10
2019-06-15T01:10:12.817Z,42.87
2019-06-15T01:12:44.195Z,42.87
2019-06-15T01:15:26.542Z,43.25
2019-06-15T01:21:32.097Z,43.47
2019-06-15T01:25:05.116Z,43.66
2019-06-15T01:30:43.468Z,44.10
2019-06-15T01:34:21.129Z,44.28
2019-06-15T01:36:36.343Z,44.36
2019-06-15T01:39:13.735Z,44.38
2019-06-15T01:41:59.512Z,44.49
2019-06-15T01:45:09.671Z,44.46
2019-06-15T01:50:45.134Z,44.88
2019-06-15T01:53:20.063Z,45.80
2019-06-15T01:55:53.430Z,45.89
2019-06-15T01:58:26.539Z,45.82
2019-06-15T02:00:58.426Z,45.70
2019-06-15T02:03:32.448Z,46.09
2019-06-15T02:08:47.316Z,46.30
2019-06-15T02:14:08.966Z,47.02
2019-06-15T02:16:43.631Z,47.29
2019-06-15T02:19:55.860Z,47.22
2019-06-15T02:25:48.323Z,46.97
2019-06-15T02:28:58.617Z,46.92
2019-06-15T02:31:30.019Z,46.92
2019-06-15T02:34:21.781Z,47.32
2019-06-15T02:39:45.989Z,47.02
2019-06-15T02:42:36.995Z,47.12
2019-06-15T02:45:07.097Z,47.31
2019-06-15T02:47:38.223Z,47.35
2019-06-15T02:50:08.385Z,47.27
2019-06-15T02:52:38.772Z,47.08
2019-06-15T02:55:10.100Z,46.97
2019-06-15T02:57:40.037Z,47.00
2019-06-15T03:00:23.253Z,46.94
2019-06-15T03:02:43.894Z,47.00
2019-06-15T03:05:14.013Z,47.11
2019-06-15T03:07:43.825Z,47.19
2019-06-15T03:10:13.918Z,47.36
2019-06-15T03:12:43.974Z,47.35
2019-06-15T03:15:13.981Z,47.15
2019-06-15T03:17:43.997Z,46.38
2019-06-15T03:20:14.059Z,46.33
2019-06-15T03:22:44.037Z,46.03
2019-06-15T03:25:32.739Z,45.53
2019-06-15T03:28:03.208Z,45.93
2019-06-15T03:30:33.694Z,45.99
2019-06-15T03:33:04.201Z,45.17
2019-06-15T03:38:25.929Z,45.78
2019-06-15T03:40:55.846Z,45.27
2019-06-15T03:43:25.824Z,45.80
2019-06-15T03:46:15.214Z,45.82
2019-06-15T03:48:45.652Z,44.92
2019-06-15T03:51:16.632Z,45.65
2019-06-15T03:53:46.935Z,46.12
2019-06-15T03:56:21.541Z,46.35
2019-06-15T03:58:49.470Z,46.36
2019-06-15T04:02:00.764Z,46.05
2019-06-15T04:04:30.859Z,45.99
2019-06-15T04:07:01.331Z,46.37
2019-06-15T04:09:32.302Z,46.31
2019-06-15T04:12:04.095Z,46.24
2019-06-15T04:14:53.037Z,46.15
2019-06-15T04:17:22.943Z,46.68
2019-06-15T04:20:12.769Z,46.82
2019-06-15T04:22:43.144Z,46.84
2019-06-15T04:25:13.593Z,47.05
2019-06-15T04:28:04.847Z,46.84
2019-06-15T04:30:34.819Z,46.84
2019-06-15T04:33:05.416Z,47.14
2019-06-15T04:35:35.676Z,47.93
2019-06-15T04:38:06.054Z,47.95
2019-06-15T04:40:36.505Z,47.77
2019-06-15T04:43:08.737Z,46.61
2019-06-15T04:45:39.859Z,46.02
2019-06-15T04:48:12.599Z,45.61
2019-06-15T04:50:57.057Z,45.24
2019-06-15T04:53:14.947Z,44.68
2019-06-15T04:55:46.550Z,44.55
2019-06-15T04:58:35.528Z,44.43
2019-06-15T05:01:06.179Z,43.97
2019-06-15T05:03:36.089Z,43.72
2019-06-15T05:08:48.346Z,42.29
2019-06-15T05:11:19.347Z,41.53
2019-06-15T05:14:08.356Z,40.35
2019-06-15T05:16:40.313Z,39.69
2019-06-15T05:19:10.292Z,39.61
2019-06-15T05:22:01.087Z,38.70
2019-06-15T05:24:31.216Z,37.38
2019-06-15T05:27:06.289Z,37.16
2019-06-15T05:29:34.511Z,37.10
2019-06-15T05:32:04.709Z,36.71
2019-06-15T05:34:34.789Z,36.25
2019-06-15T05:37:05.914Z,35.18
2019-06-15T05:39:36.238Z,34.11
2019-06-15T05:42:06.885Z,34.22
2019-06-15T05:44:49.954Z,34.08
2019-06-15T05:47:22.093Z,34.08
2019-06-15T05:49:52.494Z,34.20
2019-06-15T05:52:24.298Z,35.45
2019-06-15T05:54:54.504Z,37.45
2019-06-15T05:57:25.463Z,38.14
2019-06-15T05:59:56.521Z,37.69
2019-06-15T06:05:15.754Z,39.20
2019-06-15T06:07:46.242Z,39.62
2019-06-15T06:10:16.239Z,40.25
2019-06-15T06:12:46.680Z,40.49
2019-06-15T06:15:17.131Z,40.49
2019-06-15T06:17:48.145Z,40.73
2019-06-15T06:20:18.169Z,41.36
2019-06-15T06:22:48.561Z,41.58
2019-06-15T06:25:18.513Z,40.89
2019-06-15T06:28:09.335Z,38.84
2019-06-15T06:30:39.435Z,36.87
2019-06-15T06:33:09.905Z,35.72
2019-06-15T06:35:42.025Z,34.81
2019-06-15T06:38:13.261Z,33.84
2019-06-15T06:40:44.209Z,33.90
2019-06-15T06:43:15.690Z,32.88
2019-06-15T06:45:46.982Z,32.94
2019-06-15T06:48:36.382Z,34.10
2019-06-15T06:51:06.433Z,33.65
2019-06-15T06:53:36.707Z,32.09
2019-06-15T06:56:06.879Z,31.10
2019-06-15T06:58:38.565Z,29.36
2019-06-15T07:01:22.195Z,29.24
2019-06-15T07:03:42.633Z,29.41
2019-06-15T07:06:16.154Z,31.04
2019-06-15T07:09:07.151Z,31.70
2019-06-15T07:11:38.724Z,31.77
2019-06-15T07:14:12.474Z,32.07
2019-06-15T07:17:03.140Z,32.29
2019-06-15T07:19:33.801Z,31.81
2019-06-15T07:22:04.938Z,31.21
2019-06-15T07:24:38.475Z,31.15
2019-06-15T07:27:09.811Z,30.55
2019-06-15T07:29:40.691Z,31.19
2019-06-15T07:32:30.616Z,31.23
2019-06-15T07:35:01.657Z,32.46
2019-06-15T07:37:32.302Z,34.57
2019-06-15T07:40:04.234Z,34.47
2019-06-15T07:42:34.729Z,33.43
2019-06-15T07:45:06.600Z,32.29
2019-06-15T07:47:37.579Z,31.67
2019-06-15T07:53:18.767Z,32.20
2019-06-15T07:55:51.268Z,33.15
2019-06-15T07:58:24.921Z,35.12
2019-06-15T08:01:00.227Z,35.83
2019-06-15T08:03:49.727Z,35.67
2019-06-15T08:06:21.591Z,34.97
2019-06-15T08:08:52.610Z,35.34
2019-06-15T08:11:23.594Z,35.24
2019-06-15T08:13:54.927Z,36.50
2019-06-15T08:16:25.890Z,36.48
2019-06-15T08:18:55.897Z,35.92
2019-06-15T08:21:27.263Z,37.15
2019-06-15T08:23:58.173Z,37.15
2019-06-15T08:26:29.123Z,35.75
2019-06-15T08:29:01.145Z,36.84
2019-06-15T08:31:34.360Z,35.33
2019-06-15T08:34:06.391Z,33.76
2019-06-15T08:36:38.788Z,34.12
2019-06-15T08:39:10.556Z,34.19
2019-06-15T08:41:43.328Z,34.70
2019-06-15T08:44:14.889Z,35.12
2019-06-15T08:46:47.818Z,35.72
2019-06-15T08:49:19.747Z,35.09
2019-06-15T08:51:50.548Z,34.26
2019-06-15T08:54:41.672Z,34.72
2019-06-15T08:57:13.345Z,34.63
2019-06-15T08:59:45.102Z,34.23
2019-06-15T09:02:17.453Z,34.75
2019-06-15T09:05:08.154Z,34.35
2019-06-15T09:07:39.787Z,33.15
2019-06-15T09:10:11.566Z,32.83
2019-06-15T09:12:43.676Z,31.85
2019-06-15T09:15:41.605Z,31.50
2019-06-15T09:18:13.343Z,30.52
2019-06-15T09:20:45.627Z,31.33
2019-06-15T09:23:18.553Z,31.91
2019-06-15T09:25:53.729Z,32.24
2019-06-15T09:28:26.086Z,32.45
2019-06-15T09:30:58.226Z,32.48
2019-06-15T09:33:30.512Z,32.28
2019-06-15T09:36:03.841Z,32.62
2019-06-15T09:38:37.140Z,32.27
2019-06-15T09:41:09.736Z,30.94
2019-06-15T09:43:44.745Z,30.44
2019-06-15T09:46:22.386Z,31.28
2019-06-15T09:48:56.383Z,31.63
2019-06-15T09:51:28.186Z,31.81
2019-06-15T09:54:00.016Z,32.53
2019-06-15T09:56:32.476Z,32.87
2019-06-15T09:59:04.861Z,33.50
2019-06-15T10:02:00.474Z,33.26
2019-06-15T10:04:32.912Z,33.67
2019-06-15T10:07:04.930Z,34.34
2019-06-15T10:09:37.165Z,34.59
2019-06-15T10:12:09.626Z,34.35
2019-06-15T10:14:41.567Z,34.10
2019-06-15T10:17:14.213Z,33.38
2019-06-15T10:19:46.558Z,34.03
2019-06-15T10:22:18.978Z,33.87
2019-06-15T10:24:50.870Z,33.87
2019-06-15T10:27:24.188Z,34.41
2019-06-15T10:29:56.588Z,33.83
2019-06-15T10:32:28.845Z,33.79
2019-06-15T10:35:01.976Z,33.31
2019-06-15T10:40:16.825Z,32.75
2019-06-15T10:43:09.325Z,33.12
2019-06-15T10:45:41.177Z,32.88
2019-06-15T10:48:14.382Z,32.92
2019-06-15T10:50:48.047Z,33.12
2019-06-15T10:53:19.988Z,33.92
2019-06-15T10:55:51.907Z,33.92
2019-06-15T10:58:23.764Z,33.65
2019-06-15T11:00:56.336Z,33.71
2019-06-15T11:03:29.581Z,33.50
2019-06-15T11:06:01.506Z,31.73
2019-06-15T11:08:33.515Z,31.27
2019-06-15T11:11:31.335Z,29.97
2019-06-15T11:14:03.384Z,29.55
2019-06-15T11:16:35.101Z,29.77
2019-06-15T11:19:26.311Z,29.79
2019-06-15T11:21:58.878Z,29.06
2019-06-15T11:24:32.212Z,28.69
2019-06-15T11:27:03.132Z,28.26
2019-06-15T11:29:35.163Z,26.59
2019-06-15T11:32:07.284Z,26.56
2019-06-15T11:34:38.961Z,27.31
2019-06-15T11:37:12.806Z,27.71
2019-06-15T11:39:44.711Z,27.43
2019-06-15T11:42:36.002Z,26.90
2019-06-15T11:45:08.475Z,26.90
2019-06-15T11:47:39.489Z,27.02
2019-06-15T11:50:31.789Z,26.72
2019-06-15T11:53:17.211Z,27.17
2019-06-15T11:55:39.501Z,27.34
2019-06-15T11:58:09.013Z,27.24
2019-06-15T12:01:01.562Z,26.96
2019-06-15T12:03:34.011Z,25.91
2019-06-15T12:06:08.430Z,25.02
2019-06-15T12:09:00.118Z,25.57
2019-06-15T12:11:32.018Z,26.10
2019-06-15T12:14:03.599Z,26.24
2019-06-15T12:16:35.474Z,26.71
2019-06-15T12:19:08.005Z,26.57
2019-06-15T12:21:39.952Z,26.93
2019-06-15T12:24:10.978Z,28.36
2019-06-15T12:27:00.804Z,27.94
2019-06-15T12:29:32.723Z,28.68
2019-06-15T12:32:04.172Z,28.99
2019-06-15T12:34:36.064Z,29.91
2019-06-15T12:37:07.093Z,29.80
2019-06-15T12:39:41.806Z,30.07
2019-06-15T12:42:10.888Z,30.30
2019-06-15T12:44:42.264Z,29.66
2019-06-15T12:47:15.005Z,29.03
2019-06-15T12:49:46.677Z,29.55
2019-06-15T12:55:04.035Z,28.85
2019-06-15T12:57:36.125Z,28.83
2019-06-15T13:00:10.468Z,28.79
2019-06-15T13:02:44.863Z,28.49
2019-06-15T13:05:16.814Z,28.29
2019-06-15T13:07:48.905Z,27.45
2019-06-15T13:10:20.775Z,26.91
2019-06-15T13:12:51.725Z,26.46
2019-06-15T13:15:26.192Z,25.89
2019-06-15T13:17:58.349Z,24.87
2019-06-15T13:20:32.106Z,24.82
2019-06-15T13:23:04.341Z,24.42
2019-06-15T13:25:36.728Z,24.42
2019-06-15T13:28:08.965Z,24.49
2019-06-15T13:30:41.125Z,23.72
2019-06-15T13:33:33.339Z,23.61
2019-06-15T13:36:05.315Z,23.61
2019-06-15T13:38:37.063Z,24.04
2019-06-15T13:41:09.453Z,23.30
2019-06-15T13:43:41.182Z,22.75
2019-06-15T13:46:13.160Z,22.10
2019-06-15T13:51:37.484Z,22.12
2019-06-15T13:54:09.382Z,21.67
2019-06-15T13:56:42.446Z,21.58
2019-06-15T13:59:14.332Z,21.20
2019-06-15T14:01:46.336Z,21.25
2019-06-15T14:04:37.204Z,21.04
2019-06-15T14:07:20.534Z,20.96
2019-06-15T14:10:15.304Z,20.96
2019-06-15T14:12:48.867Z,20.95
2019-06-15T14:16:21.434Z,21.46
2019-06-15T14:18:53.444Z,21.69
2019-06-15T14:21:25.329Z,21.58
2019-06-15T14:23:57.441Z,21.66
2019-06-15T14:26:29.232Z,21.64
2019-06-15T14:29:03.493Z,21.70
2019-06-15T14:31:54.591Z,21.34
2019-06-15T14:34:26.617Z,21.72
2019-06-15T14:36:58.434Z,21.38
2019-06-15T14:39:30.476Z,20.52
2019-06-15T14:42:02.780Z,20.18
2019-06-15T14:44:35.310Z,19.91
2019-06-15T14:47:08.058Z,19.87
2019-06-15T14:49:40.565Z,19.43
2019-06-15T14:52:12.782Z,20.05
2019-06-15T14:55:03.752Z,20.02
2019-06-15T14:57:36.211Z,20.05
2019-06-15T15:03:11.835Z,20.39
2019-06-15T15:05:43.797Z,21.25
2019-06-15T15:08:15.526Z,21.50
2019-06-15T15:10:52.673Z,21.10
2019-06-15T15:13:43.557Z,21.56
2019-06-15T15:16:17.626Z,21.69
2019-06-15T15:18:49.102Z,21.32
2019-06-15T15:21:20.924Z,21.13
2019-06-15T15:26:37.248Z,20.92
2019-06-15T15:29:09.653Z,21.20
2019-06-15T15:31:53.547Z,21.39
2019-06-15T15:34:17.387Z,21.33
2019-06-15T15:36:56.794Z,21.51
2019-06-15T15:39:28.868Z,21.77
2019-06-15T15:45:07.186Z,22.14
2019-06-15T15:47:40.957Z,22.66
2019-06-15T15:56:20.090Z,23.16
2019-06-15T15:58:51.984Z,22.35
2019-06-15T16:01:26.258Z,21.30
2019-06-15T16:03:56.486Z,21.03
2019-06-15T16:06:28.217Z,21.12
2019-06-15T16:08:59.945Z,20.66
2019-06-15T16:11:31.950Z,20.15
2019-06-15T16:14:07.010Z,20.03
2019-06-15T16:16:39.217Z,19.76
2019-06-15T16:19:11.216Z,19.82
2019-06-15T16:21:43.432Z,20.06
2019-06-15T16:24:16.664Z,19.52
2019-06-15T16:26:48.573Z,19.05
2019-06-15T16:29:20.723Z,19.00
2019-06-15T16:31:57.562Z,18.81
2019-06-15T16:34:29.485Z,19.35
2019-06-15T16:37:19.947Z,18.69
2019-06-15T16:39:51.392Z,18.69
2019-06-15T16:42:23.894Z,19.04
2019-06-15T16:44:56.205Z,19.33
2019-06-15T16:47:28.107Z,19.05
2019-06-15T16:49:59.428Z,19.40
2019-06-15T16:55:21.572Z,19.64
2019-06-15T16:57:53.687Z,20.02
2019-06-15T17:00:27.615Z,20.24
2019-06-15T17:02:59.062Z,20.09
2019-06-15T17:05:30.028Z,20.03
2019-06-15T17:08:02.987Z,19.95
2019-06-15T17:10:57.621Z,19.86
2019-06-15T17:13:32.589Z,19.36
2019-06-15T17:16:06.102Z,19.05
2019-06-15T17:18:37.874Z,18.55
2019-06-15T17:21:09.640Z,18.02
2019-06-15T17:23:41.450Z,18.03
2019-06-15T17:26:12.528Z,18.42
2019-06-15T17:28:46.012Z,18.72
2019-06-15T17:31:18.757Z,18.91
2019-06-15T17:33:51.541Z,19.10
2019-06-15T17:36:27.446Z,19.38
2019-06-15T17:38:58.638Z,19.36
2019-06-15T17:41:30.303Z,19.04
2019-06-15T17:46:56.591Z,19.26
2019-06-15T17:49:27.835Z,19.28
2019-06-15T17:52:00.074Z,19.64
2019-06-15T17:54:31.713Z,19.61
2019-06-15T17:57:04.094Z,19.61
2019-06-15T18:02:27.513Z,20.69
2019-06-15T18:05:11.556Z,21.03
2019-06-15T18:07:36.048Z,21.43
2019-06-15T18:10:08.080Z,21.73
2019-06-15T18:12:39.155Z,22.33
2019-06-15T18:18:03.063Z,23.18
2019-06-15T18:20:53.806Z,23.56
2019-06-15T18:23:25.667Z,23.87
2019-06-15T18:25:56.519Z,24.37
2019-06-15T18:28:28.327Z,24.78
2019-06-15T18:30:59.317Z,25.12
2019-06-15T18:33:31.144Z,25.57
2019-06-15T18:36:02.560Z,25.83
2019-06-15T18:38:33.520Z,25.84
2019-06-15T18:41:07.076Z,26.11
2019-06-15T18:43:38.025Z,26.41
2019-06-15T18:46:09.695Z,26.52
2019-06-15T18:48:40.811Z,26.85
2019-06-15T18:51:13.092Z,26.86
2019-06-15T18:53:46.532Z,27.01
2019-06-15T18:56:36.935Z,27.02
2019-06-15T18:59:26.529Z,27.38
2019-06-15T19:01:57.525Z,27.79
2019-06-15T19:04:31.094Z,27.76
2019-06-15T19:07:02.849Z,27.97
2019-06-15T19:09:52.850Z,28.29
2019-06-15T19:12:26.227Z,28.30
2019-06-15T19:14:56.311Z,28.47
2019-06-15T19:17:27.784Z,28.85
2019-06-15T19:19:58.817Z,29.18
2019-06-15T19:22:30.446Z,29.40
2019-06-15T19:25:26.898Z,29.70
2019-06-15T19:27:36.584Z,29.75
2019-06-15T19:30:07.398Z,30.13
2019-06-15T19:32:57.329Z,30.45
2019-06-15T19:35:29.171Z,30.92
2019-06-15T19:38:00.849Z,31.34
2019-06-15T19:40:32.717Z,31.67
2019-06-15T19:43:06.312Z,32.06
2019-06-15T19:45:37.958Z,32.39
2019-06-15T19:48:08.779Z,32.64
2019-06-15T19:53:31.159Z,32.82
2019-06-15T20:01:36.915Z,32.51
2019-06-15T20:04:10.154Z,32.58
2019-06-15T20:06:41.957Z,32.79
2019-06-15T20:12:02.826Z,33.47
2019-06-15T20:14:33.574Z,33.88
2019-06-15T20:17:07.218Z,34.05
2019-06-15T20:19:49.034Z,34.11
2019-06-15T20:22:20.718Z,34.11
2019-06-15T20:24:51.477Z,34.13
2019-06-15T20:30:12.974Z,34.46
2019-06-15T20:32:46.125Z,34.94
2019-06-15T20:35:20.585Z,35.13
2019-06-15T20:37:47.944Z,34.80
2019-06-15T20:40:17.895Z,35.58
2019-06-15T20:42:50.137Z,35.33
2019-06-15T20:45:21.025Z,35.63
2019-06-15T20:47:52.389Z,35.58
2019-06-15T20:50:28.160Z,35.89
2019-06-15T20:52:56.564Z,35.84
2019-06-15T20:55:26.743Z,35.85
2019-06-15T20:57:58.373Z,36.45
2019-06-15T21:00:47.874Z,36.05
2019-06-15T21:03:19.690Z,36.38
2019-06-15T21:05:50.504Z,36.68
2019-06-15T21:08:21.425Z,36.90
2019-06-15T21:10:52.264Z,37.25
2019-06-15T21:13:23.239Z,37.38
2019-06-15T21:15:57.726Z,37.49
2019-06-15T21:18:28.810Z,37.61
2019-06-15T21:20:58.848Z,37.95
2019-06-15T21:23:29.777Z,38.12
2019-06-15T21:26:00.981Z,38.14
2019-06-15T21:28:32.738Z,38.17
2019-06-15T21:31:02.705Z,38.22
2019-06-15T21:33:51.810Z,38.20
2019-06-15T21:36:26.096Z,38.30
2019-06-15T21:38:56.416Z,38.53
2019-06-15T21:44:16.784Z,38.18
2019-06-15T21:47:08.448Z,38.08
2019-06-15T21:49:39.666Z,38.40
2019-06-15T21:52:09.991Z,38.13
2019-06-15T21:54:42.754Z,38.33
2019-06-15T21:57:15.976Z,38.13
2019-06-15T21:59:47.343Z,38.36
2019-06-15T22:02:18.326Z,38.64
2019-06-15T22:04:49.472Z,39.14
2019-06-15T22:07:41.300Z,39.23
2019-06-15T22:12:58.670Z,39.08
2019-06-15T22:15:49.866Z,38.38
2019-06-15T22:18:22.841Z,38.38
2019-06-15T22:20:54.521Z,38.48
2019-06-15T22:23:26.884Z,38.26
2019-06-15T22:25:59.775Z,37.74
2019-06-15T22:28:31.225Z,37.25
2019-06-15T22:31:02.098Z,37.27
2019-06-15T22:33:36.068Z,37.03
2019-06-15T22:36:20.695Z,36.78
2019-06-15T22:38:41.513Z,36.09
2019-06-15T22:41:13.253Z,35.59
2019-06-15T22:43:46.172Z,35.35
2019-06-15T22:46:16.860Z,35.85
2019-06-15T22:48:47.746Z,35.85
2019-06-15T22:51:20.049Z,35.81
2019-06-15T22:53:51.466Z,35.42
2019-06-15T22:56:41.802Z,35.18
2019-06-15T22:59:12.647Z,34.08
2019-06-15T23:01:46.048Z,33.77
2019-06-15T23:04:17.689Z,33.52
2019-06-15T23:06:50.301Z,32.98
2019-06-15T23:09:40.213Z,32.61
2019-06-15T23:12:12.209Z,32.49
2019-06-15T23:14:46.608Z,32.83
2019-06-15T23:20:08.938Z,32.50
2019-06-15T23:22:39.833Z,32.79
2019-06-15T23:25:10.678Z,32.92
2019-06-15T23:27:42.099Z,33.29
2019-06-15T23:30:32.021Z,33.61
2019-06-15T23:38:41.464Z,35.21
2019-06-15T23:41:11.787Z,36.04
2019-06-15T23:43:42.641Z,36.71
2019-06-15T23:46:12.564Z,36.99
2019-06-15T23:48:43.036Z,36.94
2019-06-15T23:51:13.795Z,37.31
2019-06-15T23:53:46.086Z,37.60
2019-06-15T23:56:28.711Z,37.59
